PWSweather.com
Personal Weather Stations
Station Observations
PENICUIKWS
PenicuikGB

PenicuikGB

Lat: 55.830932, Lon: -3.224533000000065

Elevation: 166

Station Type: Fine Offset

http://weather.penicuik.org

High Low Average
Temperature 70.0°F21.1°F 50.9°F10.5°F 59.6°F15.3°F
Dew Point 55.9°F13.3°F 48.1°F8.9°F 51.3°F10.7°F
Winds 6.4 mph -10.3 mph - 0.3 mph 0.5 mph 2.7 mph 4.3 mph
Wind Gusts 11.4 mph18.3 mph 1.6 mph2.6 mph 4.9 mph7.9 mph
Humidity 97% 50% 76%
Pressure 29.87 in1011.50 in 29.70 in1005.80 in -
Precipitation 0.05 in1.30 in - -
Hour Temp Dew Point Humidity Winds Wind Gusts Pressure Precip Precip Rate Daily Precip Total
12:00 AM 57.9°F14.4°C 55.9°F13.3°C 93% 1.3 mph WNW2.1 kmh WNW 3.1 mph5.0 kmh 29.70 in1005.8 mb 0.00 in0.0 mm 0.00 in0.0 mm 0.00 in0.0 mm
12:15 AM 57.7°F14.3°C 55.4°F13.0°C 92% 1.9 mph NW3.1 kmh NW 3.1 mph5.0 kmh 29.71 in1006.1 mb 0.00 in0.0 mm 0.00 in0.0 mm 0.00 in0.0 mm
12:30 AM 57.4°F14.1°C 55.1°F12.8°C 92% 1.7 mph WNW2.7 kmh WNW 3.1 mph5.0 kmh 29.70 in1005.8 mb 0.00 in0.0 mm 0.00 in0.0 mm 0.00 in0.0 mm
12:45 AM 57.0°F13.9°C 55.0°F12.8°C 93% 1.3 mph ENE2.1 kmh ENE 3.1 mph5.0 kmh 29.71 in1006.1 mb 0.00 in0.0 mm 0.00 in0.0 mm 0.00 in0.0 mm
01:00 AM 56.8°F13.8°C 54.8°F12.7°C 93% 1.8 mph WSW2.9 kmh WSW 3.1 mph5.0 kmh 29.70 in1005.8 mb 0.00 in0.0 mm 0.00 in0.0 mm 0.00 in0.0 mm
01:15 AM 56.1°F13.4°C 54.1°F12.3°C 93% 1.4 mph W2.3 kmh W 1.6 mph2.6 kmh 29.70 in1005.8 mb 0.00 in0.0 mm 0.00 in0.0 mm 0.00 in0.0 mm
01:30 AM 55.4°F13.0°C 53.4°F11.9°C 93% 1.5 mph NNW2.4 kmh NNW 4.5 mph7.2 kmh 29.70 in1005.8 mb 0.00 in0.0 mm 0.00 in0.0 mm 0.00 in0.0 mm
01:45 AM 55.0°F12.8°C 52.8°F11.6°C 92% 1.3 mph SSW2.1 kmh SSW 3.1 mph5.0 kmh 29.70 in1005.8 mb 0.00 in0.0 mm 0.00 in0.0 mm 0.00 in0.0 mm
02:00 AM 55.2°F12.9°C 53.2°F11.8°C 93% 1.2 mph SW1.9 kmh SW 3.8 mph6.1 kmh 29.70 in1005.8 mb 0.00 in0.0 mm 0.00 in0.0 mm 0.00 in0.0 mm
02:15 AM 55.4°F13.0°C 53.7°F12.1°C 94% 0.3 mph SW0.5 kmh SW 1.6 mph2.6 kmh 29.70 in1005.8 mb 0.00 in0.0 mm 0.00 in0.0 mm 0.00 in0.0 mm
02:30 AM 55.2°F12.9°C 53.5°F11.9°C 94% 0.6 mph WSW1.0 kmh WSW 1.6 mph2.6 kmh 29.70 in1005.8 mb 0.01 in0.3 mm 0.04 in1.0 mm 0.01 in0.3 mm
02:45 AM 55.2°F12.9°C 53.8°F12.1°C 95% 2.0 mph ESE3.2 kmh ESE 3.1 mph5.0 kmh 29.70 in1005.8 mb 0.02 in0.5 mm 0.04 in1.0 mm 0.02 in0.5 mm
03:15 AM 53.8°F12.1°C 52.1°F11.2°C 94% 0.8 mph SW1.3 kmh SW 1.6 mph2.6 kmh 29.70 in1005.8 mb 0.01 in0.3 mm 0.00 in0.0 mm 0.02 in0.5 mm
03:30 AM 53.4°F11.9°C 52.0°F11.1°C 95% 0.6 mph NW1.0 kmh NW 1.6 mph2.6 kmh 29.70 in1005.8 mb 0.01 in0.3 mm 0.00 in0.0 mm 0.02 in0.5 mm
03:45 AM 53.2°F11.8°C 52.1°F11.2°C 96% 1.2 mph WSW1.9 kmh WSW 4.5 mph7.2 kmh 29.70 in1005.8 mb 0.00 in0.0 mm 0.00 in0.0 mm 0.02 in0.5 mm
04:00 AM 52.9°F11.6°C 51.8°F11.0°C 96% 1.2 mph ESE1.9 kmh ESE 1.6 mph2.6 kmh 29.70 in1005.8 mb 0.00 in0.0 mm 0.00 in0.0 mm 0.02 in0.5 mm
04:15 AM 52.0°F11.1°C 50.9°F10.5°C 96% 0.9 mph NNW1.4 kmh NNW 1.6 mph2.6 kmh 29.70 in1005.8 mb 0.00 in0.0 mm 0.00 in0.0 mm 0.02 in0.5 mm
04:30 AM 51.8°F11.0°C 50.7°F10.4°C 96% 1.1 mph W1.8 kmh W 3.8 mph6.1 kmh 29.70 in1005.8 mb 0.00 in0.0 mm 0.00 in0.0 mm 0.02 in0.5 mm
04:45 AM 50.9°F10.5°C 49.8°F9.9°C 96% 0.9 mph WSW1.4 kmh WSW 1.6 mph2.6 kmh 29.71 in1006.1 mb 0.00 in0.0 mm 0.00 in0.0 mm 0.02 in0.5 mm
05:00 AM 50.9°F10.5°C 49.8°F9.9°C 96% 1.3 mph WSW2.1 kmh WSW 2.2 mph3.5 kmh 29.71 in1006.1 mb 0.00 in0.0 mm 0.00 in0.0 mm 0.02 in0.5 mm
05:15 AM 50.9°F10.5°C 50.1°F10.1°C 97% 1.6 mph SSW2.6 kmh SSW 3.1 mph5.0 kmh 29.71 in1006.1 mb 0.00 in0.0 mm 0.00 in0.0 mm 0.02 in0.5 mm
05:30 AM 50.9°F10.5°C 50.1°F10.1°C 97% 1.7 mph SSW2.7 kmh SSW 3.8 mph6.1 kmh 29.71 in1006.1 mb 0.00 in0.0 mm 0.00 in0.0 mm 0.02 in0.5 mm
05:45 AM 50.9°F10.5°C 50.1°F10.1°C 97% 1.6 mph SSW2.6 kmh SSW 3.1 mph5.0 kmh 29.73 in1006.8 mb 0.00 in0.0 mm 0.00 in0.0 mm 0.02 in0.5 mm
06:15 AM 57.9°F14.4°C 55.9°F13.3°C 93% 1.4 mph WNW2.3 kmh WNW 2.2 mph3.5 kmh 29.71 in1006.1 mb 0.00 in0.0 mm 0.00 in0.0 mm 0.02 in0.5 mm
06:30 AM 59.4°F15.2°C 53.9°F12.2°C 82% 2.1 mph WSW3.4 kmh WSW 4.5 mph7.2 kmh 29.71 in1006.1 mb 0.00 in0.0 mm 0.00 in0.0 mm 0.02 in0.5 mm
06:45 AM 61.5°F16.4°C 52.8°F11.6°C 73% 2.4 mph NNW3.9 kmh NNW 3.1 mph5.0 kmh 29.71 in1006.1 mb 0.00 in0.0 mm 0.00 in0.0 mm 0.02 in0.5 mm
07:00 AM 62.1°F16.7°C 52.2°F11.2°C 70% 3.0 mph S4.8 kmh S 6.0 mph9.7 kmh 29.72 in1006.4 mb 0.00 in0.0 mm 0.00 in0.0 mm 0.02 in0.5 mm
07:15 AM 63.9°F17.7°C 52.3°F11.3°C 66% 2.9 mph WSW4.7 kmh WSW 6.0 mph9.7 kmh 29.71 in1006.1 mb 0.00 in0.0 mm 0.00 in0.0 mm 0.02 in0.5 mm
07:30 AM 65.7°F18.7°C 53.2°F11.8°C 64% 2.5 mph SE4.0 kmh SE 3.8 mph6.1 kmh 29.72 in1006.4 mb 0.00 in0.0 mm 0.00 in0.0 mm 0.02 in0.5 mm
07:45 AM 64.4°F18.0°C 51.1°F10.6°C 62% 3.7 mph ESE6.0 kmh ESE 6.9 mph11.1 kmh 29.72 in1006.4 mb 0.00 in0.0 mm 0.00 in0.0 mm 0.02 in0.5 mm
08:00 AM 64.8°F18.2°C 51.9°F11.1°C 63% 4.3 mph WSW6.9 kmh WSW 6.0 mph9.7 kmh 29.72 in1006.4 mb 0.00 in0.0 mm 0.00 in0.0 mm 0.02 in0.5 mm
08:15 AM 64.4°F18.0°C 52.0°F11.1°C 64% 5.1 mph S8.2 kmh S 9.8 mph15.8 kmh 29.72 in1006.4 mb 0.00 in0.0 mm 0.00 in0.0 mm 0.02 in0.5 mm
08:30 AM 66.4°F19.1°C 52.5°F11.4°C 61% 4.0 mph ENE6.4 kmh ENE 7.6 mph12.2 kmh 29.73 in1006.8 mb 0.00 in0.0 mm 0.00 in0.0 mm 0.02 in0.5 mm
08:45 AM 64.6°F18.1°C 49.9°F9.9°C 59% 3.8 mph SW6.1 kmh SW 8.3 mph13.4 kmh 29.73 in1006.8 mb 0.00 in0.0 mm 0.00 in0.0 mm 0.02 in0.5 mm
09:00 AM 60.4°F15.8°C 49.8°F9.9°C 68% 2.9 mph NNW4.7 kmh NNW 10.7 mph17.2 kmh 29.73 in1006.8 mb 0.00 in0.0 mm 0.00 in0.0 mm 0.02 in0.5 mm
09:30 AM 60.1°F15.6°C 50.3°F10.2°C 70% 3.8 mph SW6.1 kmh SW 5.4 mph8.7 kmh 29.73 in1006.8 mb 0.00 in0.0 mm 0.00 in0.0 mm 0.02 in0.5 mm
09:45 AM 63.7°F17.6°C 50.4°F10.2°C 62% 3.6 mph NE5.8 kmh NE 5.4 mph8.7 kmh 29.73 in1006.8 mb 0.00 in0.0 mm 0.00 in0.0 mm 0.02 in0.5 mm
10:00 AM 66.2°F19.0°C 50.5°F10.3°C 57% 3.9 mph SW6.3 kmh SW 6.0 mph9.7 kmh 29.72 in1006.4 mb 0.00 in0.0 mm 0.00 in0.0 mm 0.02 in0.5 mm
10:15 AM 65.7°F18.7°C 50.5°F10.3°C 58% 3.9 mph SW6.3 kmh SW 6.0 mph9.7 kmh 29.73 in1006.8 mb 0.00 in0.0 mm 0.00 in0.0 mm 0.02 in0.5 mm
10:30 AM 63.9°F17.7°C 51.5°F10.8°C 64% 3.5 mph NE5.6 kmh NE 6.0 mph9.7 kmh 29.73 in1006.8 mb 0.00 in0.0 mm 0.00 in0.0 mm 0.02 in0.5 mm
10:45 AM 65.7°F18.7°C 51.4°F10.8°C 60% 3.8 mph ENE6.1 kmh ENE 7.6 mph12.2 kmh 29.73 in1006.8 mb 0.00 in0.0 mm 0.00 in0.0 mm 0.02 in0.5 mm
11:00 AM 66.9°F19.4°C 51.7°F10.9°C 58% 4.6 mph N7.4 kmh N 6.9 mph11.1 kmh 29.73 in1006.8 mb 0.00 in0.0 mm 0.00 in0.0 mm 0.02 in0.5 mm
11:15 AM 67.5°F19.7°C 51.7°F10.9°C 57% 4.7 mph S7.6 kmh S 8.3 mph13.4 kmh 29.73 in1006.8 mb 0.00 in0.0 mm 0.00 in0.0 mm 0.02 in0.5 mm
11:45 AM 65.8°F18.8°C 49.2°F9.6°C 55% 6.4 mph SE10.3 kmh SE 10.7 mph17.2 kmh 29.73 in1006.8 mb 0.00 in0.0 mm 0.00 in0.0 mm 0.02 in0.5 mm
12:00 PM 66.6°F19.2°C 50.9°F10.5°C 57% 4.8 mph N7.7 kmh N 7.6 mph12.2 kmh 29.74 in1007.1 mb 0.00 in0.0 mm 0.00 in0.0 mm 0.02 in0.5 mm
12:15 PM 68.9°F20.5°C 52.6°F11.4°C 56% 4.0 mph WSW6.4 kmh WSW 7.6 mph12.2 kmh 29.72 in1006.4 mb 0.00 in0.0 mm 0.00 in0.0 mm 0.02 in0.5 mm
12:30 PM 68.9°F20.5°C 51.6°F10.9°C 54% 5.1 mph SE8.2 kmh SE 7.6 mph12.2 kmh 29.72 in1006.4 mb 0.00 in0.0 mm 0.00 in0.0 mm 0.02 in0.5 mm
12:45 PM 70.0°F21.1°C 50.5°F10.3°C 50% 4.7 mph SSE7.6 kmh SSE 6.9 mph11.1 kmh 29.73 in1006.8 mb 0.00 in0.0 mm 0.00 in0.0 mm 0.02 in0.5 mm
01:00 PM 67.8°F19.9°C 50.1°F10.1°C 53% 5.1 mph S8.2 kmh S 9.2 mph14.8 kmh 29.73 in1006.8 mb 0.00 in0.0 mm 0.00 in0.0 mm 0.02 in0.5 mm
01:15 PM 69.4°F20.8°C 51.6°F10.9°C 53% 4.3 mph E6.9 kmh E 7.6 mph12.2 kmh 29.73 in1006.8 mb 0.00 in0.0 mm 0.00 in0.0 mm 0.02 in0.5 mm
01:30 PM 68.5°F20.3°C 50.2°F10.1°C 52% 5.5 mph W8.9 kmh W 11.4 mph18.3 kmh 29.73 in1006.8 mb 0.00 in0.0 mm 0.00 in0.0 mm 0.02 in0.5 mm
01:45 PM 69.4°F20.8°C 50.5°F10.3°C 51% 4.9 mph WSW7.9 kmh WSW 6.9 mph11.1 kmh 29.74 in1007.1 mb 0.00 in0.0 mm 0.00 in0.0 mm 0.02 in0.5 mm
02:00 PM 68.4°F20.2°C 49.0°F9.4°C 50% 4.3 mph SW6.9 kmh SW 6.9 mph11.1 kmh 29.74 in1007.1 mb 0.00 in0.0 mm 0.00 in0.0 mm 0.02 in0.5 mm
02:15 PM 65.3°F18.5°C 48.7°F9.3°C 55% 3.4 mph W5.5 kmh W 4.5 mph7.2 kmh 29.74 in1007.1 mb 0.00 in0.0 mm 0.00 in0.0 mm 0.02 in0.5 mm
02:30 PM 67.6°F19.8°C 50.9°F10.5°C 55% 3.1 mph S5.0 kmh S 6.9 mph11.1 kmh 29.74 in1007.1 mb 0.00 in0.0 mm 0.00 in0.0 mm 0.02 in0.5 mm
03:00 PM 65.8°F18.8°C 49.7°F9.8°C 56% 4.9 mph SW7.9 kmh SW 7.6 mph12.2 kmh 29.74 in1007.1 mb 0.00 in0.0 mm 0.00 in0.0 mm 0.02 in0.5 mm
03:15 PM 64.4°F18.0°C 48.9°F9.4°C 57% 3.9 mph SSW6.3 kmh SSW 9.2 mph14.8 kmh 29.75 in1007.5 mb 0.00 in0.0 mm 0.00 in0.0 mm 0.02 in0.5 mm
03:30 PM 65.1°F18.4°C 50.9°F10.5°C 60% 3.7 mph SSE6.0 kmh SSE 5.4 mph8.7 kmh 29.75 in1007.5 mb 0.00 in0.0 mm 0.00 in0.0 mm 0.02 in0.5 mm
03:45 PM 65.1°F18.4°C 49.1°F9.5°C 56% 4.1 mph SW6.6 kmh SW 6.0 mph9.7 kmh 29.76 in1007.8 mb 0.00 in0.0 mm 0.00 in0.0 mm 0.02 in0.5 mm
04:00 PM 66.2°F19.0°C 50.1°F10.1°C 56% 3.7 mph NNE6.0 kmh NNE 5.4 mph8.7 kmh 29.76 in1007.8 mb 0.00 in0.0 mm 0.00 in0.0 mm 0.02 in0.5 mm
04:30 PM 63.1°F17.3°C 48.1°F8.9°C 58% 5.5 mph SW8.9 kmh SW 10.7 mph17.2 kmh 29.77 in1008.1 mb 0.00 in0.0 mm 0.00 in0.0 mm 0.02 in0.5 mm
04:45 PM 62.6°F17.0°C 49.4°F9.7°C 62% 2.8 mph SSW4.5 kmh SSW 4.5 mph7.2 kmh 29.77 in1008.1 mb 0.00 in0.0 mm 0.00 in0.0 mm 0.02 in0.5 mm
05:15 PM 61.7°F16.5°C 49.4°F9.7°C 64% 4.4 mph SSW7.1 kmh SSW 10.7 mph17.2 kmh 29.77 in1008.1 mb 0.00 in0.0 mm 0.00 in0.0 mm 0.02 in0.5 mm
05:30 PM 61.5°F16.4°C 50.1°F10.1°C 66% 4.2 mph SSW6.8 kmh SSW 6.0 mph9.7 kmh 29.77 in1008.1 mb 0.00 in0.0 mm 0.00 in0.0 mm 0.02 in0.5 mm
05:45 PM 61.0°F16.1°C 50.0°F10.0°C 67% 2.9 mph NNW4.7 kmh NNW 4.5 mph7.2 kmh 29.78 in1008.5 mb 0.00 in0.0 mm 0.00 in0.0 mm 0.02 in0.5 mm
06:00 PM 59.9°F15.5°C 50.1°F10.1°C 70% 2.5 mph E4.0 kmh E 8.3 mph13.4 kmh 29.79 in1008.8 mb 0.00 in0.0 mm 0.00 in0.0 mm 0.02 in0.5 mm
06:15 PM 58.1°F14.5°C 49.9°F9.9°C 74% 1.8 mph NNE2.9 kmh NNE 3.1 mph5.0 kmh 29.79 in1008.8 mb 0.00 in0.0 mm 0.00 in0.0 mm 0.02 in0.5 mm
06:30 PM 57.6°F14.2°C 51.1°F10.6°C 79% 1.7 mph S2.7 kmh S 3.1 mph5.0 kmh 29.79 in1008.8 mb 0.00 in0.0 mm 0.00 in0.0 mm 0.02 in0.5 mm
07:00 PM 57.2°F14.0°C 51.8°F11.0°C 82% 2.1 mph NE3.4 kmh NE 3.8 mph6.1 kmh 29.80 in1009.1 mb 0.00 in0.0 mm 0.00 in0.0 mm 0.02 in0.5 mm
07:15 PM 56.5°F13.6°C 51.7°F10.9°C 84% 2.4 mph NNW3.9 kmh NNW 3.8 mph6.1 kmh 29.80 in1009.1 mb 0.00 in0.0 mm 0.00 in0.0 mm 0.02 in0.5 mm
07:30 PM 56.1°F13.4°C 51.7°F10.9°C 85% 2.4 mph S3.9 kmh S 6.0 mph9.7 kmh 29.81 in1009.5 mb 0.00 in0.0 mm 0.00 in0.0 mm 0.02 in0.5 mm
07:45 PM 56.1°F13.4°C 52.0°F11.1°C 86% 2.8 mph WSW4.5 kmh WSW 3.8 mph6.1 kmh 29.82 in1009.8 mb 0.00 in0.0 mm 0.00 in0.0 mm 0.02 in0.5 mm
08:00 PM 55.6°F13.1°C 51.5°F10.8°C 86% 2.7 mph SW4.3 kmh SW 4.5 mph7.2 kmh 29.82 in1009.8 mb 0.00 in0.0 mm 0.00 in0.0 mm 0.02 in0.5 mm
08:30 PM 54.5°F12.5°C 50.7°F10.4°C 87% 1.8 mph SE2.9 kmh SE 3.8 mph6.1 kmh 29.84 in1010.5 mb 0.00 in0.0 mm 0.00 in0.0 mm 0.02 in0.5 mm
08:45 PM 53.4°F11.9°C 50.3°F10.2°C 89% 1.1 mph WNW1.8 kmh WNW 2.2 mph3.5 kmh 29.84 in1010.5 mb 0.00 in0.0 mm 0.00 in0.0 mm 0.02 in0.5 mm
09:00 PM 52.7°F11.5°C 49.6°F9.8°C 89% 0.8 mph W1.3 kmh W 2.2 mph3.5 kmh 29.84 in1010.5 mb 0.00 in0.0 mm 0.00 in0.0 mm 0.02 in0.5 mm
09:15 PM 52.0°F11.1°C 49.1°F9.5°C 90% 0.8 mph NW1.3 kmh NW 2.2 mph3.5 kmh 29.85 in1010.8 mb 0.00 in0.0 mm 0.00 in0.0 mm 0.02 in0.5 mm
09:30 PM 51.8°F11.0°C 49.3°F9.6°C 91% 0.7 mph NNW1.1 kmh NNW 1.6 mph2.6 kmh 29.85 in1010.8 mb 0.00 in0.0 mm 0.00 in0.0 mm 0.02 in0.5 mm
09:45 PM 52.3°F11.3°C 49.8°F9.9°C 91% 1.2 mph W1.9 kmh W 1.6 mph2.6 kmh 29.86 in1011.2 mb 0.00 in0.0 mm 0.00 in0.0 mm 0.02 in0.5 mm
10:00 PM 53.2°F11.8°C 51.0°F10.6°C 92% 1.2 mph WSW1.9 kmh WSW 3.1 mph5.0 kmh 29.86 in1011.2 mb 0.00 in0.0 mm 0.00 in0.0 mm 0.02 in0.5 mm
10:15 PM 53.6°F12.0°C 51.0°F10.6°C 91% 1.7 mph WSW2.7 kmh WSW 2.2 mph3.5 kmh 29.86 in1011.2 mb 0.00 in0.0 mm 0.00 in0.0 mm 0.02 in0.5 mm
10:30 PM 54.1°F12.3°C 51.6°F10.9°C 91% 1.6 mph SSW2.6 kmh SSW 3.1 mph5.0 kmh 29.86 in1011.2 mb 0.00 in0.0 mm 0.00 in0.0 mm 0.02 in0.5 mm
10:45 PM 54.0°F12.2°C 51.1°F10.6°C 90% 1.9 mph NW3.1 kmh NW 2.2 mph3.5 kmh 29.87 in1011.5 mb 0.00 in0.0 mm 0.00 in0.0 mm 0.02 in0.5 mm
11:00 PM 53.6°F12.0°C 50.4°F10.2°C 89% 1.9 mph SW3.1 kmh SW 2.2 mph3.5 kmh 29.86 in1011.2 mb 0.00 in0.0 mm 0.00 in0.0 mm 0.02 in0.5 mm
11:15 PM 52.9°F11.6°C 50.0°F10.0°C 90% 1.8 mph WSW2.9 kmh WSW 3.8 mph6.1 kmh 29.87 in1011.5 mb 0.00 in0.0 mm 0.00 in0.0 mm 0.02 in0.5 mm